Terminal Aerodrome Forecast
Issued by NWS Raleigh/Durham, NC

Home | Current Version | Previous Version | Text Only | Print | Product List | Glossary On
Versions: 1 2 3 4 5 6 7 8 9 10 11 12 13 14 15 16 17
000
FTUS42 KRAH 291623 AAA
TAFRDU
TAF AMD
KRDU 291623Z 2916/3012 VRB06KT P6SM SCT040 SCT250
     FM292300 VRB06KT P6SM VCTS BKN040CB
      TEMPO 2923/3003 VRB20G30KT 2SM +SHRA BKN040
     FM300300 VRB05KT P6SM VCSH BKN040
     FM300700 VRB03KT P6SM BKN250=

USA.gov is the U.S. government's official web portal to all federal, state and local government web resources and services.